Prairie Lea, Texas
Current Conditions -  °F | °C
As of 9:53 AM on Monday 24 Nov 2014 (Local Time) from KHYI Reporting Station
Clear Clear  
Wind Chill: 14°   Ceiling: Unl
Heat Index: 14°   Visibility: 10mi
Dew Point:   Wind: 13mph
Humidity: 44%   Direction: 340°NNW
Pressure: 30.11"   Gusts: NA
Location:  29.73°N, 97.75°W
Report Text: KHYI 241553Z 34011KT 10SM CLR 14/02 A3011
Loading
Personal Weather Stations






























Interactive Weather Map New forecast layout! Learn more

10-Day Weather Forecast

Advertisements
Track Severe Weather on mobile